• Join FlightAware (Why Join?)
  • Login
  • US Flag 
10:44PM EDT


 

Airport Tracker/Info


-or-


 

Live Flight TrackerFlight Track Log ✈ N448ND ✈ 07-May-2014 ✈ KFPR - KFPR

Flight Track Log - Related Links

Times and Time Zones

All times are in EDT time to prevent confusion due to time zone crossing. See the N448ND flight status page for this flight to view local times or setup timezone preferences in your user account.

Time Position Orientation Groundspeed Altitude Reporting Facility
EDT Latitude Longitude Course Direction KTS MPH feet Rate Location/Type
02:41PM 27.4786 -80.3494 88° East 79 91 600  Level Miami Center
02:42PM 27.4794 -80.3242 88° East 75 86 1,200 480 Climbing Miami Center
02:43PM 27.4803 -80.2992 88° East 75 86 1,700 480 Climbing Miami Center
02:44PM 27.4806 -80.2767 89° East 75 86 2,200 480 Climbing Miami Center
02:45PM 27.4858 -80.2522 76° East 76 87 2,800 420 Climbing Miami Center
02:46PM 27.5106 -80.2742 322° Northwest 113 130 3,100 120 Climbing Miami Center
02:47PM 27.5347 -80.3036 313° West 119 137 3,100  Level Miami Center
02:48PM 27.5597 -80.3322 315° West 124 143 3,100  Level Miami Center
02:49PM 27.5842 -80.3622 313° West 124 143 3,100  Level Miami Center
02:50PM 27.6064 -80.3897 312° West 124 143 3,100 -60 Level Miami Center
02:51PM 27.5892 -80.4161 234° Southwest 104 120 3,000 -60 Descending Miami Center
02:52PM 27.5703 -80.4408 229° Southwest 100 115 3,000  Level Miami Center
02:53PM 27.5678 -80.4764 265° West 108 124 3,000  Level Miami Center
02:54PM 27.5694 -80.5128 273° West 109 125 3,100  Climbing Miami Center
02:55PM 27.5764 -80.5472 283° West 113 130 3,000 -60 Descending Miami Center
02:56PM 27.5953 -80.5786 304° West 114 131 3,000  Level Miami Center
02:57PM 27.6225 -80.6050 319° Northwest 123 142 3,000  Level Miami Center
02:58PM 27.6536 -80.6194 338° Northwest 120 138 3,000  Level Miami Center
02:59PM 27.6881 -80.6228 355° North 119 137 3,100 -120 Climbing Miami Center
03:00PM 27.7086 -80.6056 37° Northeast 104 120 2,800 -540 Descending Miami Center
03:01PM 27.7078 -80.5783 92° East 92 106 2,100 -660 Descending Miami Center
03:02PM 27.7003 -80.5519 108° East 85 98 1,500 -420 Descending Miami Center
03:03PM 27.6914 -80.5272 112° Southeast 84 97 1,300 -120 Descending Miami Center
03:04PM 27.6828 -80.5011 110° East 84 97 1,300 -240 Level Miami Center
03:05PM 27.6742 -80.4758 111° Southeast 84 97 900 -420 Descending Miami Center
03:07PM 27.6678 -80.4592 113° Southeast 66 76 500 -240 Descending Miami Center
03:08PM 27.6606 -80.4367 110° East 69 79 500 180 Level Miami Center
03:09PM 27.6558 -80.4131 103° East 71 82 900 360 Climbing Miami Center
03:10PM 27.6525 -80.3906 99° East 71 82 1,300 480 Climbing Miami Center
03:11PM 27.6503 -80.3658 96° East 72 83 1,900 480 Climbing Miami Center
03:12PM 27.6489 -80.3428 94° East 74 85 2,400 480 Climbing Miami Center
03:13PM 27.6494 -80.3181 89° East 74 85 2,900 300 Climbing Miami Center
03:14PM 27.6467 -80.2919 97° East 77 89 3,100 60 Climbing Miami Center
03:15PM 27.6194 -80.2936 183° South 88 101 3,100  Level Miami Center
03:16PM 27.6108 -80.3283 254° West 118 136 3,100 -60 Level Miami Center
03:17PM 27.6086 -80.3675 266° West 118 136 3,000  Descending Miami Center
03:18PM 27.6075 -80.4039 268° West 118 136 3,100  Climbing Miami Center
03:19PM 27.6067 -80.4425 269° West 119 137 3,100  Level Miami Center
03:20PM 27.6050 -80.4822 267° West 119 137 3,100  Level Miami Center
03:21PM 27.6031 -80.5192 267° West 118 136 3,100 -60 Level Miami Center
03:22PM 27.6011 -80.5564 267° West 113 130 3,000  Descending Miami Center
03:23PM 27.5989 -80.5936 266° West 114 131 3,100  Climbing Miami Center
03:24PM 27.5969 -80.6283 266° West 114 131 3,000 -300 Descending Miami Center
03:25PM 27.5786 -80.6469 222° Southwest 101 116 2,600 -480 Descending Miami Center
03:26PM 27.5553 -80.6483 183° South 81 93 2,100 -300 Descending Miami Center
03:27PM 27.5286 -80.6492 182° South 92 106 2,100 -60 Level Miami Center
03:28PM 27.5078 -80.6372 153° Southeast 95 109 2,000  Descending Miami Center
03:29PM 27.4989 -80.6089 109° East 88 101 2,100  Climbing Miami Center
03:30PM 27.4992 -80.5806 89° East 88 101 2,000 -120 Descending Miami Center
03:31PM 27.4981 -80.5519 93° East 90 104 1,900  Descending Miami Center
03:32PM 27.4983 -80.5236 89° East 90 104 2,000  Climbing Miami Center
03:33PM 27.4981 -80.4933 91° East 89 102 1,900 -180 Descending Miami Center
03:34PM 27.4989 -80.4644 88° East 90 104 1,700 -360 Descending Miami Center
03:35PM 27.4972 -80.4406 94° East 76 87 1,200 -540 Descending Miami Center
03:36PM 27.4978 -80.4156 89° East 76 87 600 -360 Descending Miami Center
03:38PM 27.4986 -80.3925 88° East 76 87 500 -240 Descending Miami Center
03:39PM 27.4994 -80.3750 87° East 80 92 200 -300 Descending Miami Center